Share

New Millport, PA (16861)

Clearfield-Lawrence (KFIG) Elev 1516 ft | 41.05 °N, 78.41 °W | Change Station

Current weather conditions updated 46 minutes ago

Clear
Clear
37 °F
Feels Like 34 °F
N
4
Wind Variable Wind from North
Sunrise 6:26 AM
Sunset 7:59 PM
Moon Waning Gibbous

Today is forecast to be Warmer than yesterday.

Pressure 30.17 in
Visibility 10.0 miles
Clouds Clear
Windchill 34 °F
Dew Point 31 °F
Humidity 79%
Rainfall 0.00 in
Snow Depth Not available.
UV 0 out of 16
Pollen 10.50 out of 12
Air Quality Not available.
Flu Activity Local Activity
METAR KFIG 210954Z AUTO 35003KT 10SM CLR 03/M01 A3016 RMK AO2 SLP215 T00281006

More Conditions Fewer Conditions

Pressure 30.17 in
Visibility 10.0 miles
Clouds Clear
Windchill 34 °F
Dew Point 31 °F
Humidity 79%
Rainfall 0.00 in
Snow Depth Not available.
UV 0 out of 16
Pollen 10.50 out of 12
Air Quality Not available.
Flu Activity Local Activity
METAR KFIG 210954Z AUTO 35003KT 10SM CLR 03/M01 A3016 RMK AO2 SLP215 T00281006

More Conditions Fewer Conditions

10-Day Weather Forecast

Almanac

Astronomy

Apr. 21, 2014 Rise Set
Actual Time 6:26 AM EDT 7:59 PM EDT
Civil Twilight 5:57 AM EDT 8:28 PM EDT
Nautical Twilight 5:22 AM EDT 9:03 PM EDT
Astronomical Twilight 4:45 AM EDT 9:41 PM EDT
Moon 1:29 AM EDT 11:50 AM EDT
Length of Visible Light 14h 31m
Length of Day
13h 33m
Tomorrow will be 2m 30s longer.
Waning Gibbous, 60% of the Moon is Illuminated
Today
Waning Gibbous
Apr 22
Last Quarter
Apr 29
New
May 6
First Quarter
May 14
Full

Today's Extremes

State Highs State Lows

Community

  • Snowy Robin
    Snowy Robin
  • Sun Pillar and Geese
    Sun Pillar and Geese
  • Showers on the Way
    Showers on the Way
  • Easter Morning Fog
    Easter Morning Fog
  • Easter Dance
    Easter Dance

WunderPhotos

Upload Photos

1,703,587 photos uploaded!

WunderBlogs® & News

Nearby

Snow Depth

Station Depth Elevation
No new snow has been reported.

Coastal Water Temperatures

Place Temperature
No Stations Reporting

Earthquake Activity

City Distance Mag. Time & Date
No recent earthquake activity has been reported nearby.
Minimum magnitude displayed is 2.5.

Nearby Weather Stations

Station Location Temp. Windchill Dew Point Humidity Wind Precip. Elev Updated Type
RAWS KENNEDY PRESERVE PA, Penfield, PA 42 °F 39 °F 29 °F 60% South  at  5 mph 0.00 in / hr 2121 ft 5:08 AM EDT MADIS
Tyrone, Tyrone, PA 35.7 °F 36 °F 33 °F 89% West  at  0.0 mph 0.00 in / hr 1138 ft 6:36 AM EDT Normal
Holly Terrace, Falls Creek, PA 33.8 °F 34 °F 32 °F 95% North  at  0.0 mph 0.00 in / hr 1473 ft 6:40 AM EDT Rapid Fire
NE Altoona-Broadway, Altoona, PA 38.1 °F 38 °F 35 °F 89% North  at  0.0 mph - / hr 1188 ft 6:28 AM EDT Normal

Show More Stations Show Fewer Stations

What do you think?

We're not finished. Please let us know what you like, what you don't like, and what you are still missing.